Time;durP1;ratioP1;P1;durP2;ratioP2;P2;SDS_P1;SDS_P2;PMS_P1;PMS_P2;Temp;Humidity;BMP_temperature;BMP_pressure;BME280_temperature;BME280_humidity;BME280_pressure;Samples;Min_cycle;Max_cycle;Signal;HPM_P1;HPM_P2
2022/07/18 00:01:22;;;;;;;0.70;0.68;;;17.80;57.50;;;;;;5093118;28;20390;-73
2022/07/18 00:03:48;;;;;;;0.80;0.70;;;17.70;57.50;;;;;;5057878;28;20596;-74
2022/07/18 00:06:13;;;;;;;0.60;0.60;;;17.70;57.60;;;;;;5074834;28;20032;-74
2022/07/18 00:08:39;;;;;;;0.98;0.60;;;17.60;57.70;;;;;;5057590;28;20071;-74
2022/07/18 00:11:05;;;;;;;0.70;0.70;;;17.60;57.80;;;;;;5092876;28;20115;-74
2022/07/18 00:13:30;;;;;;;1.33;0.80;;;17.60;57.90;;;;;;5057541;28;20043;-74
2022/07/18 00:15:56;;;;;;;1.08;0.68;;;17.50;58.00;;;;;;5092302;28;20059;-75
2022/07/18 00:18:22;;;;;;;1.10;0.60;;;17.50;58.10;;;;;;5092292;28;20066;-74
2022/07/18 00:20:48;;;;;;;0.90;0.60;;;17.50;58.10;;;;;;5092716;28;20131;-74
2022/07/18 00:23:13;;;;;;;0.55;0.55;;;17.50;58.20;;;;;;5092245;28;20550;-74
2022/07/18 00:25:39;;;;;;;0.60;0.60;;;17.40;58.30;;;;;;5074227;28;20092;-74
2022/07/18 00:28:05;;;;;;;0.70;0.50;;;17.40;58.40;;;;;;5092245;28;20066;-74
2022/07/18 00:30:30;;;;;;;1.25;0.70;;;17.40;58.50;;;;;;5092574;28;20123;-74
2022/07/18 00:32:56;;;;;;;0.60;0.60;;;17.30;58.50;;;;;;5074073;28;20043;-74
2022/07/18 00:35:22;;;;;;;0.98;0.75;;;17.30;58.60;;;;;;5092346;28;20482;-74
2022/07/18 00:37:48;;;;;;;0.63;0.63;;;17.30;58.70;;;;;;5092730;28;20047;-74
2022/07/18 00:40:13;;;;;;;0.77;0.60;;;17.20;58.70;;;;;;5073770;28;20147;-74
2022/07/18 00:42:39;;;;;;;0.93;0.70;;;17.20;58.80;;;;;;5074337;28;20040;-74
2022/07/18 00:45:05;;;;;;;0.70;0.60;;;17.20;58.90;;;;;;5092565;28;20405;-74
2022/07/18 00:47:31;;;;;;;0.98;0.77;;;17.20;59.00;;;;;;5092200;28;20032;-74
2022/07/18 00:49:57;;;;;;;1.20;0.70;;;17.10;59.00;;;;;;5073459;28;20042;-74
2022/07/18 00:52:22;;;;;;;0.60;0.60;;;17.10;59.10;;;;;;5091943;28;20036;-74
2022/07/18 00:54:48;;;;;;;0.98;0.60;;;17.10;59.20;;;;;;5092002;28;20036;-74
2022/07/18 00:57:14;;;;;;;0.82;0.80;;;17.10;59.30;;;;;;5056881;28;20040;-74
2022/07/18 01:02:26;;;;;;;0.50;0.50;;;17.00;59.40;;;;;;5090305;28;20047;-74
2022/07/18 01:04:52;;;;;;;0.63;0.50;;;17.00;59.50;;;;;;5089813;28;20035;-74
2022/07/18 01:07:18;;;;;;;0.65;0.60;;;17.00;59.60;;;;;;5093285;28;20044;-74
2022/07/18 01:09:44;;;;;;;0.95;0.52;;;17.00;59.60;;;;;;5076843;28;20036;-74
2022/07/18 01:12:10;;;;;;;0.47;0.47;;;17.00;59.60;;;;;;5094890;28;20490;-74
2022/07/18 01:14:36;;;;;;;0.50;0.50;;;17.00;59.60;;;;;;5074792;28;20401;-74
2022/07/18 01:17:02;;;;;;;0.50;0.50;;;17.00;60.10;;;;;;5060215;28;20051;-74
2022/07/18 01:19:28;;;;;;;0.90;0.68;;;17.00;59.50;;;;;;5076761;28;20040;-74
2022/07/18 01:21:53;;;;;;;0.70;0.68;;;17.10;59.60;;;;;;5094823;28;20040;-74
2022/07/18 01:24:19;;;;;;;0.88;0.55;;;17.00;59.60;;;;;;5094948;28;20040;-74
2022/07/18 01:26:46;;;;;;;0.68;0.50;;;16.90;59.60;;;;;;5095489;28;20036;-74
2022/07/18 01:29:11;;;;;;;1.00;0.60;;;17.00;59.70;;;;;;5076721;28;20142;-74
2022/07/18 01:31:37;;;;;;;1.05;0.70;;;16.90;59.70;;;;;;5095147;28;20512;-74
2022/07/18 01:34:03;;;;;;;1.05;0.70;;;16.90;59.70;;;;;;5095127;28;20481;-74
2022/07/18 01:36:28;;;;;;;0.50;0.50;;;16.90;59.80;;;;;;5092817;28;20044;-74
2022/07/18 01:38:54;;;;;;;0.63;0.52;;;17.00;59.80;;;;;;5059854;28;20044;-74
2022/07/18 01:41:20;;;;;;;0.50;0.50;;;16.90;59.80;;;;;;5094716;28;20052;-74
2022/07/18 01:43:45;;;;;;;0.68;0.65;;;16.90;59.90;;;;;;5057898;28;20046;-74
2022/07/18 01:46:11;;;;;;;0.52;0.52;;;16.90;59.90;;;;;;5076765;28;20036;-74
2022/07/18 01:48:39;;;;;;;0.63;0.55;;;16.90;59.90;;;;;;5092835;28;20061;-74
2022/07/18 01:51:09;;;;;;;0.47;0.40;;;16.90;60.00;;;;;;5076841;28;20063;-74
2022/07/18 01:53:36;;;;;;;1.13;0.50;;;16.90;60.00;;;;;;5095056;28;20059;-74
2022/07/18 01:56:01;;;;;;;1.15;0.57;;;16.90;60.00;;;;;;5076569;28;20285;-74
2022/07/18 01:58:27;;;;;;;0.93;0.52;;;16.90;60.00;;;;;;5094345;28;20036;-74
2022/07/18 02:00:53;;;;;;;0.70;0.70;;;16.90;60.10;;;;;;5076217;28;20135;-74
2022/07/18 02:03:18;;;;;;;1.00;0.60;;;16.90;60.10;;;;;;5094793;28;20122;-74
2022/07/18 02:05:44;;;;;;;0.55;0.50;;;16.80;60.10;;;;;;5094584;28;20064;-74
2022/07/18 02:08:10;;;;;;;0.47;0.40;;;16.80;60.20;;;;;;5094052;28;20514;-74
2022/07/18 02:10:36;;;;;;;0.50;0.50;;;16.80;60.90;;;;;;5094174;28;20035;-74
2022/07/18 02:13:01;;;;;;;0.80;0.50;;;16.80;60.40;;;;;;5076328;28;20081;-74
2022/07/18 02:15:27;;;;;;;0.50;0.50;;;16.80;60.50;;;;;;5076661;28;20067;-74
2022/07/18 02:17:53;;;;;;;0.70;0.50;;;16.70;60.50;;;;;;5092490;28;20877;-74
2022/07/18 02:20:19;;;;;;;0.60;0.60;;;16.70;60.60;;;;;;5075308;28;20043;-74
2022/07/18 02:22:44;;;;;;;0.45;0.45;;;16.60;60.60;;;;;;5094173;28;20036;-74
2022/07/18 02:25:11;;;;;;;1.05;0.50;;;16.60;60.70;;;;;;5075761;28;20043;-74
2022/07/18 02:27:37;;;;;;;0.60;0.60;;;16.60;60.70;;;;;;5094029;28;20040;-74
2022/07/18 02:30:05;;;;;;;1.00;0.60;;;16.60;60.80;;;;;;5092506;28;20036;-74
2022/07/18 02:32:31;;;;;;;0.77;0.55;;;16.60;60.90;;;;;;5093779;28;20040;-74
2022/07/18 02:34:56;;;;;;;0.60;0.60;;;16.60;61.10;;;;;;5094139;28;20043;-74
2022/07/18 02:37:22;;;;;;;0.60;0.60;;;16.50;61.10;;;;;;5093795;28;20398;-74
2022/07/18 02:39:48;;;;;;;0.88;0.55;;;16.50;61.20;;;;;;5075586;28;20047;-74
2022/07/18 02:42:14;;;;;;;0.80;0.60;;;16.50;61.30;;;;;;5093865;28;20044;-74
2022/07/18 02:44:40;;;;;;;0.85;0.50;;;16.40;61.30;;;;;;5094262;28;20048;-74
2022/07/18 02:47:06;;;;;;;0.70;0.55;;;16.30;61.30;;;;;;5093779;28;20044;-74
2022/07/18 02:49:32;;;;;;;0.95;0.50;;;16.40;61.50;;;;;;5073553;28;20498;-74
2022/07/18 02:52:00;;;;;;;0.93;0.50;;;16.40;61.60;;;;;;5093792;28;20093;-74
2022/07/18 02:54:27;;;;;;;0.60;0.60;;;16.30;61.70;;;;;;5094043;28;20478;-74
2022/07/18 02:56:53;;;;;;;0.75;0.50;;;16.20;61.70;;;;;;5075636;28;20051;-74
2022/07/18 02:59:19;;;;;;;0.70;0.60;;;16.20;61.90;;;;;;5075457;28;20044;-74
2022/07/18 03:01:45;;;;;;;0.70;0.50;;;16.10;61.90;;;;;;5093319;28;20482;-74
2022/07/18 03:04:11;;;;;;;0.82;0.60;;;16.10;61.90;;;;;;5093301;28;20032;-74
2022/07/18 03:06:37;;;;;;;0.73;0.65;;;16.10;62.00;;;;;;5093402;28;20044;-74
2022/07/18 03:09:04;;;;;;;0.50;0.45;;;16.10;62.20;;;;;;5091074;28;20048;-74
2022/07/18 03:11:29;;;;;;;0.60;0.60;;;16.00;62.20;;;;;;5093188;28;20059;-75
2022/07/18 03:13:55;;;;;;;0.60;0.60;;;16.00;62.30;;;;;;5093148;28;20048;-74
2022/07/18 03:16:21;;;;;;;0.43;0.40;;;16.00;62.40;;;;;;5072886;28;20055;-74
2022/07/18 03:18:46;;;;;;;0.52;0.50;;;16.00;62.50;;;;;;5091063;28;20043;-74
2022/07/18 03:21:12;;;;;;;0.77;0.60;;;15.90;62.50;;;;;;5093385;28;20055;-74
2022/07/18 03:23:38;;;;;;;0.70;0.60;;;15.90;62.50;;;;;;5075061;28;20135;-74
2022/07/18 03:26:04;;;;;;;0.95;0.50;;;15.90;62.60;;;;;;5073406;28;20082;-74
2022/07/18 03:28:29;;;;;;;0.80;0.47;;;15.80;62.60;;;;;;5072205;28;20405;-74
2022/07/18 03:30:58;;;;;;;0.77;0.50;;;15.90;62.80;;;;;;5075083;28;20408;-74
2022/07/18 03:33:25;;;;;;;0.73;0.57;;;15.80;62.80;;;;;;5074532;28;20106;-74
2022/07/18 03:35:51;;;;;;;0.55;0.40;;;15.80;62.80;;;;;;5075814;28;20073;-74
2022/07/18 03:38:17;;;;;;;0.50;0.47;;;15.80;62.90;;;;;;5093059;28;20036;-74
2022/07/18 03:40:43;;;;;;;0.43;0.43;;;15.80;63.30;;;;;;5072466;28;20047;-74
2022/07/18 03:43:08;;;;;;;0.60;0.52;;;15.80;63.60;;;;;;5092839;28;20074;-74
2022/07/18 03:45:34;;;;;;;0.65;0.50;;;15.80;63.00;;;;;;5074939;28;20494;-74
2022/07/18 03:48:00;;;;;;;1.08;0.70;;;15.70;63.10;;;;;;5092992;28;20398;-74
2022/07/18 03:50:27;;;;;;;0.80;0.50;;;15.70;63.10;;;;;;5090886;28;20040;-74
2022/07/18 03:52:53;;;;;;;0.50;0.50;;;15.70;63.10;;;;;;5075336;28;20054;-74
2022/07/18 03:55:20;;;;;;;0.60;0.50;;;15.70;63.20;;;;;;5093205;28;20159;-74
2022/07/18 03:57:46;;;;;;;0.55;0.50;;;15.70;63.20;;;;;;5092980;28;20060;-74
2022/07/18 04:00:12;;;;;;;0.73;0.60;;;15.70;63.30;;;;;;5092465;28;20519;-74
2022/07/18 04:02:40;;;;;;;0.40;0.40;;;15.70;63.30;;;;;;5093367;28;20066;-74
2022/07/18 04:05:06;;;;;;;0.45;0.43;;;15.60;63.30;;;;;;5092528;28;20450;-74
2022/07/18 04:07:32;;;;;;;0.63;0.50;;;15.70;63.40;;;;;;5092806;28;20032;-74
2022/07/18 04:09:57;;;;;;;0.47;0.47;;;15.70;63.40;;;;;;5093298;28;20130;-74
2022/07/18 04:12:23;;;;;;;0.57;0.50;;;15.70;63.40;;;;;;5093167;28;20065;-74
2022/07/18 04:14:48;;;;;;;0.93;0.60;;;15.70;63.50;;;;;;5058522;28;20071;-74
2022/07/18 04:17:14;;;;;;;0.50;0.50;;;15.70;63.50;;;;;;5092784;28;20123;-74
2022/07/18 04:19:40;;;;;;;0.70;0.50;;;15.70;63.50;;;;;;5092733;28;20127;-74
2022/07/18 04:22:05;;;;;;;1.00;0.52;;;15.70;63.60;;;;;;5092366;28;20135;-74
2022/07/18 04:24:31;;;;;;;0.63;0.60;;;15.80;64.30;;;;;;5092450;28;20032;-74
2022/07/18 04:26:57;;;;;;;0.65;0.50;;;15.70;63.50;;;;;;5072559;28;20036;-74
2022/07/18 04:29:23;;;;;;;0.57;0.50;;;15.80;63.60;;;;;;5057310;28;20032;-76
2022/07/18 04:31:48;;;;;;;0.40;0.40;;;15.80;63.60;;;;;;5092640;28;20089;-76
2022/07/18 04:34:14;;;;;;;0.45;0.45;;;15.90;63.60;;;;;;5092769;28;20040;-76
2022/07/18 04:36:40;;;;;;;0.60;0.60;;;15.90;63.60;;;;;;5092093;28;20512;-76
2022/07/18 04:39:06;;;;;;;1.52;0.70;;;16.00;63.70;;;;;;5074059;28;20526;-76
2022/07/18 04:41:31;;;;;;;0.40;0.40;;;15.90;63.60;;;;;;5074366;28;20543;-76
2022/07/18 04:43:57;;;;;;;0.77;0.50;;;16.00;63.60;;;;;;5096226;28;21038;-75
2022/07/18 04:46:22;;;;;;;1.15;0.60;;;16.00;63.60;;;;;;5096114;28;20374;-75
2022/07/18 04:48:48;;;;;;;0.43;0.43;;;16.00;63.60;;;;;;5075819;28;20505;-75
2022/07/18 04:51:15;;;;;;;0.73;0.50;;;16.00;63.50;;;;;;5077531;28;20040;-75
2022/07/18 04:53:41;;;;;;;1.52;0.60;;;16.10;63.50;;;;;;5078286;28;20482;-75
2022/07/18 04:56:07;;;;;;;0.50;0.50;;;16.10;63.50;;;;;;5096289;28;20024;-75
2022/07/18 04:58:32;;;;;;;0.43;0.43;;;16.10;63.40;;;;;;5077715;28;20051;-75
2022/07/18 05:00:58;;;;;;;0.40;0.40;;;16.20;63.40;;;;;;5077563;28;20093;-74
2022/07/18 05:03:24;;;;;;;0.40;0.40;;;16.20;63.40;;;;;;5095657;28;20395;-75
2022/07/18 05:05:50;;;;;;;0.52;0.43;;;16.20;63.30;;;;;;5095284;28;20032;-75
2022/07/18 05:08:15;;;;;;;0.55;0.50;;;16.30;63.30;;;;;;5096100;28;20036;-75
2022/07/18 05:10:41;;;;;;;0.60;0.50;;;16.30;63.10;;;;;;5096140;28;20104;-75
2022/07/18 05:13:07;;;;;;;0.57;0.50;;;16.40;63.10;;;;;;5096817;28;20139;-75
2022/07/18 05:15:33;;;;;;;1.42;0.70;;;16.50;63.10;;;;;;5096631;28;20055;-73
2022/07/18 05:17:58;;;;;;;0.75;0.60;;;16.60;62.90;;;;;;5078823;28;20040;-74
2022/07/18 05:20:25;;;;;;;0.30;0.30;;;16.60;62.80;;;;;;5078125;28;20062;-74
2022/07/18 05:22:52;;;;;;;0.50;0.40;;;16.70;62.60;;;;;;5095811;28;20036;-75
2022/07/18 05:25:19;;;;;;;0.35;0.35;;;16.90;62.50;;;;;;5077141;28;20047;-75
2022/07/18 05:27:44;;;;;;;0.50;0.50;;;16.90;62.20;;;;;;5095683;28;20036;-75
2022/07/18 05:30:13;;;;;;;0.85;0.60;;;17.10;62.00;;;;;;5095789;28;20474;-75
2022/07/18 05:32:41;;;;;;;0.50;0.50;;;17.20;62.00;;;;;;5060237;28;20371;-75
2022/07/18 05:35:09;;;;;;;0.77;0.50;;;17.30;61.80;;;;;;5058432;28;20440;-74
2022/07/18 05:37:35;;;;;;;0.75;0.52;;;17.40;61.60;;;;;;5093650;28;20482;-75
2022/07/18 05:40:04;;;;;;;0.82;0.40;;;17.50;61.40;;;;;;5095533;28;20032;-74
2022/07/18 05:42:30;;;;;;;0.68;0.60;;;17.60;61.20;;;;;;5096075;28;20093;-74
2022/07/18 05:44:56;;;;;;;0.30;0.30;;;17.60;61.20;;;;;;5077376;28;20436;-75
2022/07/18 05:47:22;;;;;;;0.63;0.60;;;17.70;61.20;;;;;;5082927;28;20032;-76
2022/07/18 05:49:47;;;;;;;0.40;0.40;;;17.70;61.20;;;;;;5070898;28;20081;-76
2022/07/18 05:52:13;;;;;;;1.08;0.70;;;17.70;61.30;;;;;;5103165;28;20048;-76
2022/07/18 05:54:39;;;;;;;0.82;0.50;;;17.70;61.30;;;;;;5100800;28;20082;-76
2022/07/18 05:57:05;;;;;;;0.40;0.40;;;17.80;61.30;;;;;;5086397;28;20048;-76
2022/07/18 05:59:31;;;;;;;0.80;0.60;;;17.80;61.30;;;;;;5105888;28;20486;-76
2022/07/18 06:01:56;;;;;;;0.82;0.60;;;17.80;61.40;;;;;;5105262;28;20036;-76
2022/07/18 06:04:22;;;;;;;0.40;0.40;;;17.90;61.50;;;;;;5077801;28;20123;-76
2022/07/18 06:06:49;;;;;;;0.40;0.40;;;17.90;61.40;;;;;;5095302;28;20417;-75
2022/07/18 06:09:16;;;;;;;0.50;0.40;;;18.00;61.40;;;;;;5094854;28;20043;-75
2022/07/18 06:11:42;;;;;;;0.43;0.40;;;18.00;61.40;;;;;;5095023;28;20389;-75
2022/07/18 06:14:08;;;;;;;0.40;0.40;;;18.10;61.30;;;;;;5055640;28;20044;-75
2022/07/18 06:16:34;;;;;;;0.98;0.60;;;18.20;61.20;;;;;;5095128;28;20043;-75
2022/07/18 06:19:00;;;;;;;0.55;0.55;;;18.20;61.10;;;;;;5076392;28;20493;-75
2022/07/18 06:21:26;;;;;;;0.50;0.50;;;18.30;61.10;;;;;;5094701;28;20086;-75
2022/07/18 06:23:52;;;;;;;0.47;0.47;;;18.40;61.10;;;;;;5094367;28;20043;-75
2022/07/18 06:26:17;;;;;;;0.60;0.50;;;18.50;61.00;;;;;;5094805;28;20094;-75
2022/07/18 06:28:43;;;;;;;0.85;0.70;;;18.50;60.90;;;;;;5094572;28;20470;-75
2022/07/18 06:31:11;;;;;;;0.73;0.60;;;18.60;60.80;;;;;;5094630;28;20494;-76
2022/07/18 06:33:37;;;;;;;0.80;0.60;;;18.70;60.70;;;;;;5092671;28;20048;-76
2022/07/18 06:36:05;;;;;;;0.32;0.32;;;18.70;60.60;;;;;;5076777;28;20491;-76
2022/07/18 06:38:31;;;;;;;0.45;0.45;;;18.80;60.60;;;;;;5095047;28;20040;-76
2022/07/18 06:41:12;;;;;;;0.60;0.60;;;18.90;60.50;;;;;;5094597;28;20043;-76
2022/07/18 06:44:12;;;;;;;0.65;0.63;;;19.10;60.40;;;;;;5037386;28;20040;-76
2022/07/18 06:46:40;;;;;;;0.50;0.50;;;19.20;60.20;;;;;;4992621;28;20042;-75
2022/07/18 06:49:09;;;;;;;0.40;0.40;;;19.30;60.70;;;;;;4981232;28;20037;-75
2022/07/18 06:51:38;;;;;;;0.63;0.50;;;19.40;59.80;;;;;;4995512;28;20100;-76
2022/07/18 06:54:04;;;;;;;0.65;0.50;;;19.70;59.80;;;;;;4997840;28;20046;-76
2022/07/18 06:56:30;;;;;;;0.40;0.40;;;19.80;59.50;;;;;;4997947;28;20042;-75
2022/07/18 06:58:56;;;;;;;0.52;0.50;;;20.00;59.30;;;;;;4996143;28;20520;-75
2022/07/18 07:01:31;;;;;;;0.40;0.40;;;20.20;59.10;;;;;;4997743;28;20057;-75
2022/07/18 07:10:53;;;;;;;0.82;0.50;;;20.80;58.40;;;;;;4834647;29;20053;-76
2022/07/18 07:13:22;;;;;;;0.68;0.50;;;21.00;58.20;;;;;;4829248;29;20064;-75
2022/07/18 07:16:08;;;;;;;1.52;0.57;;;21.20;58.00;;;;;;4825453;29;20049;-75
2022/07/18 07:25:25;;;;;;;0.32;0.32;;;21.80;57.30;;;;;;4783370;29;20046;-75
2022/07/18 07:27:53;;;;;;;0.35;0.32;;;22.10;57.20;;;;;;4792529;29;20486;-76
2022/07/18 07:30:26;;;;;;;0.50;0.40;;;22.30;57.00;;;;;;4823268;29;20042;-76
2022/07/18 07:36:21;;;;;;;0.40;0.40;;;22.70;56.60;;;;;;4809991;29;20074;-75
2022/07/18 07:38:55;;;;;;;0.65;0.30;;;23.00;56.50;;;;;;4877649;29;20404;-76
2022/07/18 07:41:29;;;;;;;0.73;0.50;;;23.10;56.20;;;;;;4882063;29;20052;-76
2022/07/18 07:44:01;;;;;;;0.60;0.40;;;23.40;56.10;;;;;;4882441;29;20044;-76
2022/07/18 07:46:27;;;;;;;0.43;0.32;;;23.70;56.00;;;;;;4894939;29;20048;-77
2022/07/18 07:49:01;;;;;;;0.68;0.52;;;23.90;55.70;;;;;;4895399;29;20487;-77
2022/07/18 07:51:35;;;;;;;0.85;0.50;;;24.10;55.40;;;;;;4865461;29;20136;-77
2022/07/18 07:54:55;;;;;;;0.30;0.30;;;24.40;55.10;;;;;;4901480;29;20083;-76
2022/07/18 07:57:03;;;;;;;0.40;0.40;;;24.80;55.00;;;;;;4913657;29;20051;-76
2022/07/18 07:59:36;;;;;;;0.70;0.52;;;24.90;54.80;;;;;;4917695;29;20066;-76
2022/07/18 08:02:05;;;;;;;0.40;0.40;;;25.00;54.70;;;;;;4950740;28;20161;-74
2022/07/18 08:04:31;;;;;;;0.60;0.40;;;25.10;54.60;;;;;;5013809;28;20111;-74
2022/07/18 08:06:59;;;;;;;0.30;0.30;;;25.20;54.50;;;;;;4997676;28;20049;-74
2022/07/18 08:09:50;;;;;;;0.40;0.40;;;25.30;54.50;;;;;;5023296;28;20037;-76
2022/07/18 08:48:02;;;;;;;0.30;0.30;;;27.40;53.10;;;;;;4624122;31;20431;-74
2022/07/18 08:50:31;;;;;;;0.52;0.40;;;27.50;52.90;;;;;;4618966;30;20059;-74
2022/07/18 08:52:59;;;;;;;0.75;0.35;;;27.70;52.80;;;;;;4698077;30;20496;-74
2022/07/18 08:55:25;;;;;;;0.63;0.38;;;27.80;52.50;;;;;;4745375;29;20047;-73
2022/07/18 08:57:52;;;;;;;0.30;0.30;;;27.80;52.40;;;;;;4826866;29;20197;-73
2022/07/18 09:00:18;;;;;;;0.40;0.40;;;28.00;52.20;;;;;;4914456;29;20050;-72
2022/07/18 09:02:44;;;;;;;0.40;0.40;;;28.20;51.90;;;;;;4954684;28;20528;-72
2022/07/18 09:05:20;;;;;;;0.32;0.30;;;28.50;51.70;;;;;;5030364;28;20046;-72
2022/07/18 09:07:45;;;;;;;0.63;0.50;;;28.50;51.40;;;;;;5088886;28;20101;-72
2022/07/18 09:10:11;;;;;;;0.40;0.40;;;28.60;51.30;;;;;;5091998;28;20036;-72
2022/07/18 09:12:57;;;;;;;0.50;0.50;;;28.70;51.20;;;;;;5092058;28;20490;-73
2022/07/18 09:15:34;;;;;;;0.40;0.40;;;28.60;51.00;;;;;;5057976;28;20044;-73
2022/07/18 09:18:00;;;;;;;0.75;0.55;;;28.80;51.20;;;;;;5074397;28;20040;-73
2022/07/18 09:20:38;;;;;;;0.55;0.50;;;28.90;51.00;;;;;;5091481;28;20040;-74
2022/07/18 09:23:13;;;;;;;0.45;0.40;;;29.00;50.80;;;;;;5073225;28;20040;-73
2022/07/18 09:25:39;;;;;;;0.30;0.30;;;29.20;50.50;;;;;;5073644;28;20074;-73
2022/07/18 09:28:09;;;;;;;0.50;0.50;;;29.30;50.40;;;;;;5060110;28;20072;-73
2022/07/18 09:30:35;;;;;;;;;;;29.40;50.20;;;;;;5075892;28;20041;-72
2022/07/18 09:33:08;;;;;;;0.30;0.30;;;29.50;50.30;;;;;;5075160;28;19913;-73
2022/07/18 09:35:37;;;;;;;0.38;0.38;;;29.60;50.00;;;;;;5042655;28;20089;-73
2022/07/18 09:38:07;;;;;;;0.40;0.40;;;29.60;50.50;;;;;;5095653;28;20036;-72
2022/07/18 09:40:39;;;;;;;0.30;0.30;;;29.60;49.80;;;;;;5077190;28;20282;-73
2022/07/18 09:43:08;;;;;;;0.40;0.40;;;29.60;49.60;;;;;;5095631;28;20050;-73
2022/07/18 09:45:53;;;;;;;0.50;0.50;;;29.70;49.50;;;;;;5075794;28;20040;-75
2022/07/18 09:48:22;;;;;;;0.40;0.40;;;29.70;49.20;;;;;;5078953;28;20045;-74
2022/07/18 09:50:59;;;;;;;0.40;0.40;;;29.90;49.00;;;;;;5077806;28;20052;-74
2022/07/18 09:53:30;;;;;;;1.20;0.60;;;30.00;48.80;;;;;;5075957;28;20054;-73
2022/07/18 09:55:59;;;;;;;0.45;0.45;;;30.20;48.60;;;;;;5060481;28;20036;-75
2022/07/18 09:58:28;;;;;;;1.15;0.80;;;30.10;48.30;;;;;;5092704;28;20048;-74
2022/07/18 10:00:58;;;;;;;0.70;0.45;;;30.00;48.20;;;;;;5080892;28;20058;-74
2022/07/18 10:03:24;;;;;;;0.45;0.45;;;29.80;48.10;;;;;;5079354;28;20051;-74
2022/07/18 10:05:53;;;;;;;0.55;0.50;;;29.60;48.50;;;;;;5059442;28;20127;-75
2022/07/18 10:08:22;;;;;;;0.40;0.40;;;29.40;48.60;;;;;;5076880;28;20040;-74
2022/07/18 10:10:50;;;;;;;0.65;0.60;;;29.20;48.80;;;;;;5095134;28;20063;-74
2022/07/18 10:13:17;;;;;;;2.75;0.50;;;29.10;49.10;;;;;;5094554;28;20048;-73
2022/07/18 10:15:45;;;;;;;1.67;0.50;;;29.00;49.20;;;;;;5074290;28;20130;-72
2022/07/18 10:18:13;;;;;;;0.50;0.50;;;28.90;49.30;;;;;;5076298;28;20047;-74
2022/07/18 10:20:47;;;;;;;4.30;0.55;;;28.80;49.50;;;;;;5094946;28;20074;-73
2022/07/18 10:23:18;;;;;;;0.55;0.55;;;28.70;49.60;;;;;;5093426;28;20040;-73
2022/07/18 10:25:47;;;;;;;0.55;0.40;;;28.80;49.60;;;;;;5074921;28;20033;-73
2022/07/18 10:28:14;;;;;;;0.80;0.47;;;29.00;49.30;;;;;;5076602;28;20114;-74
2022/07/18 10:30:45;;;;;;;0.65;0.50;;;29.00;49.00;;;;;;5057416;28;20067;-74
2022/07/18 10:33:38;;;;;;;0.40;0.40;;;29.00;49.00;;;;;;5076206;28;20181;-73
2022/07/18 10:36:08;;;;;;;0.63;0.40;;;28.90;49.20;;;;;;5093728;28;20051;-73
2022/07/18 10:38:34;;;;;;;0.43;0.43;;;28.70;49.40;;;;;;5092983;28;20044;-73
2022/07/18 10:41:13;;;;;;;1.17;0.30;;;28.60;49.60;;;;;;5094599;28;20135;-73
2022/07/18 10:43:42;;;;;;;0.40;0.40;;;28.70;49.50;;;;;;5089066;28;20036;-73
2022/07/18 10:46:13;;;;;;;0.75;0.50;;;29.00;49.30;;;;;;5092655;28;20048;-73
2022/07/18 10:49:00;;;;;;;0.50;0.50;;;29.20;48.80;;;;;;5057264;28;20115;-73
2022/07/18 10:51:36;;;;;;;0.30;0.30;;;29.40;48.40;;;;;;5057602;28;20032;-74
2022/07/18 10:54:05;;;;;;;0.43;0.40;;;29.60;48.10;;;;;;5041502;28;20036;-74
2022/07/18 10:57:08;;;;;;;1.15;0.50;;;29.80;47.70;;;;;;5056973;28;20043;-74
2022/07/18 10:59:57;;;;;;;0.30;0.30;;;30.10;48.10;;;;;;5063751;28;20102;-74
2022/07/18 11:02:33;;;;;;;0.30;0.30;;;30.30;47.20;;;;;;5092109;28;20106;-74
2022/07/18 11:05:00;;;;;;;0.40;0.40;;;30.40;47.00;;;;;;5014655;28;20128;-74
2022/07/18 11:07:30;;;;;;;0.73;0.55;;;30.50;46.70;;;;;;5031452;28;20074;-74
2022/07/18 11:09:56;;;;;;;1.67;0.57;;;30.50;46.60;;;;;;5031312;28;20041;-73
2022/07/18 11:12:28;;;;;;;0.50;0.50;;;30.50;46.50;;;;;;5031584;28;20403;-73
2022/07/18 11:15:01;;;;;;;0.60;0.60;;;30.50;46.40;;;;;;5029668;28;20049;-73
2022/07/18 11:17:55;;;;;;;0.60;0.50;;;30.60;46.20;;;;;;5031309;28;20514;-73
2022/07/18 11:20:40;;;;;;;0.60;0.60;;;30.50;46.00;;;;;;5029259;28;20041;-73
2022/07/18 11:23:21;;;;;;;0.40;0.40;;;30.70;45.80;;;;;;5016171;28;20059;-74
2022/07/18 11:25:49;;;;;;;0.70;0.57;;;30.70;45.70;;;;;;5014858;28;20041;-73
2022/07/18 11:28:15;;;;;;;0.60;0.57;;;30.80;45.60;;;;;;5031022;28;20045;-74
2022/07/18 11:30:42;;;;;;;0.68;0.63;;;30.90;45.50;;;;;;5031613;28;20045;-74
2022/07/18 11:33:22;;;;;;;0.50;0.50;;;31.00;45.20;;;;;;5031149;28;20080;-74
2022/07/18 11:35:48;;;;;;;;;;;31.10;45.00;;;;;;5051788;28;20123;-73
2022/07/18 11:38:14;;;;;;;0.45;0.45;;;31.20;45.10;;;;;;5075125;28;19947;-72
2022/07/18 11:40:54;;;;;;;0.45;0.45;;;31.20;45.00;;;;;;5075368;28;20377;-73
2022/07/18 11:43:54;;;;;;;0.47;0.47;;;31.30;44.80;;;;;;5092587;28;20074;-73
2022/07/18 11:46:23;;;;;;;0.50;0.50;;;31.30;44.70;;;;;;5076943;28;20056;-74
2022/07/18 11:49:07;;;;;;;0.47;0.47;;;31.30;44.70;;;;;;5093128;28;20416;-74
2022/07/18 11:51:40;;;;;;;0.90;0.45;;;31.40;44.60;;;;;;5076316;28;20116;-73
2022/07/18 11:54:07;;;;;;;0.40;0.40;;;31.50;44.60;;;;;;5074772;28;20056;-73
2022/07/18 11:56:33;;;;;;;0.77;0.50;;;31.50;44.30;;;;;;5074796;28;20054;-73
2022/07/18 11:59:04;;;;;;;1.80;0.60;;;31.60;44.30;;;;;;5093488;28;20119;-73
2022/07/18 12:01:32;;;;;;;0.50;0.50;;;31.50;44.00;;;;;;5092703;28;20034;-72
2022/07/18 12:04:23;;;;;;;0.65;0.60;;;31.50;44.00;;;;;;5058210;28;20040;-75
2022/07/18 12:07:26;;;;;;;0.40;0.40;;;31.50;44.00;;;;;;5030203;28;20566;-74
2022/07/18 12:09:53;;;;;;;0.73;0.50;;;31.40;44.10;;;;;;5051688;28;20057;-74
2022/07/18 12:12:21;;;;;;;2.15;0.80;;;31.50;44.00;;;;;;5037679;28;20084;-75
2022/07/18 12:15:05;;;;;;;0.70;0.70;;;31.40;43.80;;;;;;5032521;28;20044;-74
2022/07/18 12:17:42;;;;;;;0.50;0.50;;;31.30;43.80;;;;;;5030592;28;20508;-75
2022/07/18 12:20:14;;;;;;;0.70;0.63;;;31.40;43.90;;;;;;5030619;28;20045;-74
2022/07/18 12:23:11;;;;;;;0.95;0.50;;;31.40;43.70;;;;;;5030844;28;20507;-74
2022/07/18 12:25:44;;;;;;;0.70;0.70;;;31.50;43.60;;;;;;5013553;28;20124;-74
2022/07/18 12:28:15;;;;;;;1.17;0.50;;;31.50;43.50;;;;;;5030587;28;20081;-74
2022/07/18 12:30:41;;;;;;;0.57;0.57;;;31.50;43.40;;;;;;5030079;28;20120;-74
2022/07/18 12:33:09;;;;;;;0.60;0.60;;;31.60;43.40;;;;;;5030588;28;20480;-74
2022/07/18 12:35:36;;;;;;;0.73;0.60;;;31.60;43.30;;;;;;5028689;28;20385;-74
2022/07/18 12:38:05;;;;;;;0.50;0.50;;;31.60;43.30;;;;;;5012562;28;20072;-74
2022/07/18 12:40:52;;;;;;;0.50;0.43;;;31.70;43.20;;;;;;5011534;28;20049;-74
2022/07/18 12:43:35;;;;;;;0.60;0.60;;;31.60;43.10;;;;;;5030392;28;20108;-74
2022/07/18 12:46:03;;;;;;;0.80;0.68;;;31.70;43.00;;;;;;5048278;28;20041;-74
2022/07/18 12:48:31;;;;;;;0.50;0.50;;;31.70;43.00;;;;;;5050204;28;20049;-74
2022/07/18 12:51:02;;;;;;;0.52;0.52;;;31.70;42.90;;;;;;5049981;28;20053;-74
2022/07/18 12:53:30;;;;;;;0.50;0.50;;;31.80;42.80;;;;;;5033245;28;20056;-75
2022/07/18 12:56:09;;;;;;;0.50;0.50;;;31.80;42.70;;;;;;5069720;28;20040;-73
2022/07/18 12:59:11;;;;;;;0.77;0.60;;;31.70;42.80;;;;;;5092057;28;20094;-75
2022/07/18 13:01:36;;;;;;;0.50;0.50;;;31.70;43.00;;;;;;5057085;28;20048;-75
2022/07/18 13:04:07;;;;;;;0.93;0.60;;;31.60;42.90;;;;;;5096266;28;20435;-73
2022/07/18 13:06:56;;;;;;;0.65;0.47;;;31.60;42.80;;;;;;5059031;28;20518;-75
2022/07/18 13:09:51;;;;;;;0.70;0.70;;;31.60;42.70;;;;;;5044164;28;20481;-75
2022/07/18 13:12:17;;;;;;;0.60;0.52;;;31.60;42.60;;;;;;5055346;28;20055;-74
2022/07/18 13:14:42;;;;;;;0.50;0.50;;;31.60;42.70;;;;;;5050643;28;20041;-74
2022/07/18 13:17:16;;;;;;;0.50;0.50;;;31.70;42.60;;;;;;5003552;28;20033;-74
2022/07/18 13:19:52;;;;;;;0.50;0.50;;;31.70;42.50;;;;;;5004996;28;20422;-75
2022/07/18 13:22:48;;;;;;;0.40;0.40;;;31.60;42.50;;;;;;5004160;28;20128;-75
2022/07/18 13:25:19;;;;;;;0.52;0.52;;;31.60;42.50;;;;;;5016768;28;20564;-75
2022/07/18 13:27:48;;;;;;;0.93;0.70;;;31.70;42.50;;;;;;5015067;28;20068;-75
2022/07/18 13:30:35;;;;;;;0.50;0.50;;;31.70;42.40;;;;;;5032959;28;20503;-75
2022/07/18 13:40:00;;;;;;;0.50;0.50;;;31.70;42.20;;;;;;4823296;29;20418;-74
2022/07/18 13:43:07;;;;;;;0.43;0.43;;;31.60;42.30;;;;;;4809391;29;20042;-75
2022/07/18 13:46:14;;;;;;;0.40;0.40;;;31.50;42.30;;;;;;4798246;29;20468;-75
2022/07/18 13:48:44;;;;;;;0.55;0.55;;;31.50;42.30;;;;;;4824011;29;20608;-74
2022/07/18 13:51:19;;;;;;;0.40;0.40;;;31.50;42.20;;;;;;4842103;29;20058;-75
2022/07/18 13:54:16;;;;;;;0.50;0.47;;;31.60;42.00;;;;;;4842091;29;20060;-75
2022/07/18 14:00:00;;;;;;;0.40;0.40;;;31.50;42.00;;;;;;4792319;29;20061;-75
2022/07/18 14:02:27;;;;;;;0.50;0.40;;;31.50;42.20;;;;;;4790566;29;20553;-75
2022/07/18 14:04:53;;;;;;;0.68;0.40;;;31.50;42.10;;;;;;4790160;29;20043;-75
2022/07/18 14:07:19;;;;;;;0.63;0.50;;;31.50;42.10;;;;;;4788754;29;20053;-75